createdAt,value
2023-05-05T00:00:15.907Z,97996.50
2023-05-05T00:02:42.881Z,97997.69
2023-05-05T00:05:11.306Z,97988.03
2023-05-05T00:07:37.894Z,97997.38
2023-05-05T00:10:07.468Z,97991.94
2023-05-05T00:12:34.426Z,97998.94
2023-05-05T00:15:01.199Z,97989.69
2023-05-05T00:17:27.941Z,97987.00
2023-05-05T00:19:54.415Z,97981.56
2023-05-05T00:22:21.029Z,97971.06
2023-05-05T00:24:51.564Z,97976.53
2023-05-05T00:27:18.077Z,97978.88
2023-05-05T00:29:44.750Z,97973.81
2023-05-05T00:32:13.086Z,97978.88
2023-05-05T00:34:39.551Z,97980.78
2023-05-05T00:37:06.237Z,97985.84
2023-05-05T00:39:33.463Z,97978.88
2023-05-05T00:41:59.938Z,97978.09
2023-05-05T00:44:38.651Z,97973.44
2023-05-05T00:47:05.707Z,97971.13
2023-05-05T00:49:33.702Z,97980.03
2023-05-05T00:52:00.659Z,97976.16
2023-05-05T00:54:27.449Z,97968.00
2023-05-05T00:56:54.180Z,97969.53
2023-05-05T00:59:22.745Z,97974.56
2023-05-05T01:01:50.730Z,97970.69
2023-05-05T01:04:20.212Z,97977.28
2023-05-05T01:07:04.524Z,97983.13
2023-05-05T01:09:43.953Z,97984.66
2023-05-05T01:12:25.960Z,97971.09
2023-05-05T01:15:12.059Z,97973.03
2023-05-05T01:17:45.776Z,97969.94
2023-05-05T01:20:20.929Z,97980.41
2023-05-05T01:22:53.790Z,97973.41
2023-05-05T01:25:57.719Z,97980.81
2023-05-05T01:28:29.424Z,97977.69
2023-05-05T01:31:33.585Z,97976.53
2023-05-05T01:34:08.412Z,97982.75
2023-05-05T01:36:46.966Z,97994.00
2023-05-05T01:39:18.284Z,97998.66
2023-05-05T01:41:51.223Z,97999.84
2023-05-05T01:44:21.711Z,98000.63
2023-05-05T01:46:49.848Z,97997.13
2023-05-05T01:49:16.635Z,98001.38
2023-05-05T01:51:46.116Z,97998.66
2023-05-05T01:54:13.966Z,97994.41
2023-05-05T01:56:44.796Z,97994.00
2023-05-05T01:59:14.349Z,98000.59
2023-05-05T02:01:44.612Z,98000.19
2023-05-05T02:04:14.486Z,97992.44
2023-05-05T02:06:42.812Z,98002.13
2023-05-05T02:09:12.960Z,98000.59
2023-05-05T02:11:40.649Z,98008.69
2023-05-05T02:14:09.426Z,98006.78
2023-05-05T02:16:37.992Z,98004.81
2023-05-05T02:19:05.800Z,98000.94
2023-05-05T02:21:39.150Z,98005.19
2023-05-05T02:24:05.937Z,98005.19
2023-05-05T02:26:36.003Z,98002.88
2023-05-05T02:29:20.076Z,98007.53
2023-05-05T02:31:53.366Z,98004.44
2023-05-05T02:34:31.534Z,98002.13
2023-05-05T02:37:00.877Z,98007.53
2023-05-05T02:39:38.559Z,98009.09
2023-05-05T02:42:06.377Z,98010.28
2023-05-05T02:44:34.582Z,98006.38
2023-05-05T02:47:05.653Z,98007.56
2023-05-05T02:49:32.495Z,98009.91
2023-05-05T02:51:59.192Z,98005.25
2023-05-05T02:54:28.226Z,98011.47
2023-05-05T02:56:57.751Z,98010.31
2023-05-05T02:59:48.830Z,98008.38
2023-05-05T03:02:21.944Z,98010.72
2023-05-05T03:05:21.280Z,98014.59
2023-05-05T03:08:01.901Z,98006.06
2023-05-05T03:10:38.184Z,98009.94
2023-05-05T03:13:09.359Z,98004.09
2023-05-05T03:15:44.900Z,97995.56
2023-05-05T03:18:12.579Z,98001.38
2023-05-05T03:20:42.267Z,97995.56
2023-05-05T03:23:09.106Z,97999.44
2023-05-05T03:25:46.436Z,98002.94
2023-05-05T03:28:16.397Z,98005.28
2023-05-05T03:30:44.626Z,98004.47
2023-05-05T03:33:12.031Z,98004.47
2023-05-05T03:35:38.671Z,98003.31
2023-05-05T03:38:05.155Z,98004.06
2023-05-05T03:40:43.053Z,97999.41
2023-05-05T03:43:17.119Z,97999.06
2023-05-05T03:45:43.747Z,98001.38
2023-05-05T03:48:10.248Z,98003.72
2023-05-05T03:50:36.950Z,98001.38
2023-05-05T03:53:03.502Z,97996.72
2023-05-05T03:55:29.983Z,97995.94
2023-05-05T03:58:01.041Z,97993.59
2023-05-05T04:00:27.688Z,97996.69
2023-05-05T04:02:54.336Z,97998.66
2023-05-05T04:05:24.434Z,97998.28
2023-05-05T04:07:54.371Z,97990.91
2023-05-05T04:10:21.613Z,97994.38
2023-05-05T04:12:48.080Z,98000.59
2023-05-05T04:15:14.797Z,97997.50
2023-05-05T04:17:41.340Z,98005.28
2023-05-05T04:20:17.302Z,98000.59
2023-05-05T04:22:46.196Z,98001.78
2023-05-05T04:25:12.696Z,98008.00
2023-05-05T04:27:41.484Z,98002.94
2023-05-05T04:30:09.417Z,98003.31
2023-05-05T04:32:36.518Z,98006.03
2023-05-05T04:35:05.490Z,98006.81
2023-05-05T04:37:32.085Z,98014.59
2023-05-05T04:39:58.606Z,98010.69
2023-05-05T04:42:27.696Z,98022.75
2023-05-05T04:44:56.385Z,98015.34
2023-05-05T04:47:22.918Z,98018.47
2023-05-05T04:49:54.035Z,98020.41
2023-05-05T04:52:20.592Z,98018.09
2023-05-05T04:54:47.138Z,98019.63
2023-05-05T04:57:13.800Z,98028.16
2023-05-05T04:59:40.417Z,98027.00
2023-05-05T05:02:07.016Z,98032.44
2023-05-05T05:04:33.953Z,98035.56
2023-05-05T05:07:01.575Z,98035.56
2023-05-05T05:09:28.087Z,98043.31
2023-05-05T05:11:54.756Z,98041.38
2023-05-05T05:14:21.399Z,98042.16
2023-05-05T05:16:52.792Z,98034.38
2023-05-05T05:19:19.544Z,98037.88
2023-05-05T05:21:47.786Z,98038.28
2023-05-05T05:24:14.236Z,98041.75
2023-05-05T05:26:40.870Z,98041.41
2023-05-05T05:29:07.354Z,98042.56
2023-05-05T05:31:34.574Z,98048.00
2023-05-05T05:34:07.707Z,98044.88
2023-05-05T05:36:34.164Z,98048.75
2023-05-05T05:39:00.613Z,98038.63
2023-05-05T05:41:27.197Z,98042.50
2023-05-05T05:43:53.704Z,98046.75
2023-05-05T05:46:21.214Z,98047.47
2023-05-05T05:48:53.283Z,98054.03
2023-05-05T05:51:19.801Z,98056.19
2023-05-05T05:53:46.358Z,98059.50
2023-05-05T05:56:14.683Z,98058.97
2023-05-05T05:58:45.261Z,98055.50
2023-05-05T06:01:12.013Z,98054.16
2023-05-05T06:03:38.723Z,98062.69
2023-05-05T06:06:05.349Z,98060.28
2023-05-05T06:08:32.288Z,98058.19
2023-05-05T06:11:00.696Z,98053.88
2023-05-05T06:13:27.187Z,98059.03
2023-05-05T06:15:53.661Z,98057.50
2023-05-05T06:18:22.408Z,98058.31
2023-05-05T06:20:54.501Z,98050.59
2023-05-05T06:23:20.980Z,98058.78
2023-05-05T06:25:51.485Z,98055.50
2023-05-05T06:28:18.699Z,98061.25
2023-05-05T06:30:45.165Z,98060.53
2023-05-05T06:33:18.155Z,98058.09
2023-05-05T06:35:44.671Z,98055.03
2023-05-05T06:38:13.142Z,98064.00
2023-05-05T06:40:41.384Z,98060.97
2023-05-05T06:43:07.890Z,98054.06
2023-05-05T06:45:34.770Z,98057.66
2023-05-05T06:48:01.285Z,98062.63
2023-05-05T06:50:27.822Z,98067.34
2023-05-05T06:52:54.390Z,98063.09
2023-05-05T06:55:29.936Z,98061.47
2023-05-05T06:57:56.487Z,98059.06
2023-05-05T07:00:23.410Z,98060.81
2023-05-05T07:02:50.220Z,98056.69
2023-05-05T07:05:16.747Z,98058.84
2023-05-05T07:08:00.816Z,98057.84
2023-05-05T07:10:27.959Z,98054.34
2023-05-05T07:12:55.063Z,98052.25
2023-05-05T07:15:29.092Z,98055.44
2023-05-05T07:17:56.649Z,98057.91
2023-05-05T07:20:23.451Z,98062.47
2023-05-05T07:23:00.575Z,98056.84
2023-05-05T07:25:29.953Z,98049.44
2023-05-05T07:27:56.582Z,98053.22
2023-05-05T07:30:30.174Z,98049.06
2023-05-05T07:32:59.679Z,98047.06
2023-05-05T07:35:26.417Z,98040.06
2023-05-05T07:37:53.193Z,98039.28
2023-05-05T07:40:19.765Z,98044.75
2023-05-05T07:42:47.534Z,98042.44
2023-05-05T07:45:15.755Z,98047.16
2023-05-05T07:47:42.502Z,98046.41
2023-05-05T07:50:09.474Z,98040.50
2023-05-05T07:52:46.828Z,98034.63
2023-05-05T07:55:18.154Z,98039.38
2023-05-05T07:57:47.682Z,98039.34
2023-05-05T08:00:14.619Z,98037.72
2023-05-05T08:02:41.586Z,98033.47
2023-05-05T08:05:10.691Z,98034.63
2023-05-05T08:07:41.095Z,98036.53
2023-05-05T08:10:14.798Z,98042.00
2023-05-05T08:12:41.354Z,98036.00
2023-05-05T08:15:08.675Z,98036.34
2023-05-05T08:17:47.170Z,98033.09
2023-05-05T08:20:13.974Z,98036.41
2023-05-05T08:22:43.049Z,98024.69
2023-05-05T08:25:14.824Z,98024.69
2023-05-05T08:27:42.891Z,98023.03
2023-05-05T08:30:10.335Z,98023.72
2023-05-05T08:32:38.500Z,98028.72
2023-05-05T08:35:06.699Z,98023.59
2023-05-05T08:37:33.636Z,98023.53
2023-05-05T08:40:00.515Z,98015.06
2023-05-05T08:42:36.973Z,98018.31
2023-05-05T08:45:05.969Z,98019.97
2023-05-05T08:47:33.271Z,98012.00
2023-05-05T08:50:00.211Z,98010.75
2023-05-05T08:52:33.593Z,98008.31
2023-05-05T08:55:28.399Z,98004.19
2023-05-05T08:57:59.481Z,97995.25
2023-05-05T09:00:27.378Z,97995.13
2023-05-05T09:02:57.170Z,97996.50
2023-05-05T09:05:28.915Z,97987.59
2023-05-05T09:07:55.680Z,97981.56
2023-05-05T09:10:22.230Z,97985.25
2023-05-05T09:12:53.319Z,97985.69
2023-05-05T09:15:19.807Z,97983.97
2023-05-05T09:17:48.725Z,97979.41
2023-05-05T09:20:17.295Z,97970.88
2023-05-05T09:22:46.186Z,97971.56
2023-05-05T09:25:17.962Z,97962.25
2023-05-05T09:27:47.442Z,97964.56
2023-05-05T09:30:23.616Z,97965.09
2023-05-05T09:32:52.363Z,97959.13
2023-05-05T09:35:20.080Z,97952.66
2023-05-05T09:37:47.035Z,97951.84
2023-05-05T09:40:17.647Z,97944.16
2023-05-05T09:42:44.930Z,97950.81
2023-05-05T09:45:17.339Z,97944.28
2023-05-05T09:47:46.027Z,97939.34
2023-05-05T09:50:18.685Z,97931.91
2023-05-05T09:53:01.460Z,97932.22
2023-05-05T09:55:28.773Z,97926.47
2023-05-05T09:57:58.650Z,97928.38
2023-05-05T10:00:39.108Z,97928.84
2023-05-05T10:03:05.861Z,97928.53
2023-05-05T10:05:32.434Z,97928.94
2023-05-05T10:08:13.419Z,97920.34
2023-05-05T10:11:07.013Z,97915.63
2023-05-05T10:13:42.339Z,97912.16
2023-05-05T10:16:09.790Z,97911.22
2023-05-05T10:18:38.758Z,97907.78
2023-05-05T10:21:06.288Z,97900.31
2023-05-05T10:24:08.080Z,97897.34
2023-05-05T10:26:40.623Z,97885.00
2023-05-05T10:29:21.544Z,97893.22
2023-05-05T10:31:59.090Z,97880.72
2023-05-05T10:34:42.563Z,97880.56
2023-05-05T10:37:09.224Z,97885.78
2023-05-05T10:39:36.240Z,97880.03
2023-05-05T10:42:13.510Z,97877.88
2023-05-05T10:44:41.362Z,97868.22
2023-05-05T10:47:08.198Z,97870.25
2023-05-05T10:49:55.256Z,97860.25
2023-05-05T10:52:32.208Z,97855.00
2023-05-05T10:55:11.492Z,97853.47
2023-05-05T10:57:41.244Z,97848.00
2023-05-05T11:00:09.130Z,97841.97
2023-05-05T11:02:36.762Z,97838.72
2023-05-05T11:05:06.971Z,97838.31
2023-05-05T11:07:34.659Z,97836.81
2023-05-05T11:10:04.679Z,97836.81
2023-05-05T11:12:32.691Z,97830.38
2023-05-05T11:15:28.217Z,97826.25
2023-05-05T11:17:56.480Z,97828.38
2023-05-05T11:20:37.150Z,97817.50
2023-05-05T11:23:04.020Z,97818.91
2023-05-05T11:25:37.237Z,97812.53
2023-05-05T11:28:13.309Z,97819.22
2023-05-05T11:30:54.888Z,97811.53
2023-05-05T11:33:32.758Z,97806.34
2023-05-05T11:36:04.200Z,97805.63
2023-05-05T11:39:13.768Z,97801.00
2023-05-05T11:42:10.786Z,97798.38
2023-05-05T11:44:37.929Z,97797.03
2023-05-05T11:47:04.446Z,97800.72
2023-05-05T11:49:35.112Z,97795.66
2023-05-05T11:52:06.657Z,97795.38
2023-05-05T11:54:35.424Z,97788.34
2023-05-05T11:57:05.259Z,97783.34
2023-05-05T11:59:38.800Z,97777.03
2023-05-05T12:02:05.594Z,97776.28
2023-05-05T12:04:32.501Z,97777.47
2023-05-05T12:07:01.872Z,97766.69
2023-05-05T12:09:28.749Z,97764.84
2023-05-05T12:11:58.757Z,97746.19
2023-05-05T12:14:25.995Z,97745.44
2023-05-05T12:17:07.863Z,97742.31
2023-05-05T12:19:39.881Z,97739.63
2023-05-05T12:22:06.388Z,97735.22
2023-05-05T12:24:33.015Z,97734.59
2023-05-05T12:27:11.423Z,97735.47
2023-05-05T12:29:38.230Z,97724.97
2023-05-05T12:32:05.187Z,97726.78
2023-05-05T12:34:32.500Z,97718.69
2023-05-05T12:36:59.263Z,97730.03
2023-05-05T12:39:38.319Z,97715.75
2023-05-05T12:42:06.300Z,97709.09
2023-05-05T12:44:38.482Z,97696.66
2023-05-05T12:47:05.674Z,97689.94
2023-05-05T12:49:34.951Z,97684.84
2023-05-05T12:52:01.621Z,97685.31
2023-05-05T12:54:29.820Z,97693.78
2023-05-05T12:56:59.698Z,97688.47
2023-05-05T12:59:27.524Z,97688.06
2023-05-05T13:02:08.914Z,97669.53
2023-05-05T13:04:48.370Z,97666.91
2023-05-05T13:07:18.509Z,97656.72
2023-05-05T13:09:46.049Z,97648.88
2023-05-05T13:12:12.746Z,97660.16
2023-05-05T13:14:46.301Z,97666.66
2023-05-05T13:17:13.806Z,97673.06
2023-05-05T13:19:46.203Z,97660.00
2023-05-05T13:22:17.815Z,97662.81
2023-05-05T13:24:51.641Z,97675.16
2023-05-05T13:27:19.718Z,97674.34
2023-05-05T13:29:46.774Z,97676.44
2023-05-05T13:32:13.265Z,97673.56
2023-05-05T13:34:39.809Z,97667.81
2023-05-05T13:37:06.629Z,97659.50
2023-05-05T13:39:33.278Z,97658.97
2023-05-05T13:42:08.606Z,97649.84
2023-05-05T13:44:40.565Z,97651.97
2023-05-05T13:47:09.084Z,97646.19
2023-05-05T13:49:36.106Z,97642.41
2023-05-05T13:52:04.983Z,97649.53
2023-05-05T13:54:31.667Z,97638.78
2023-05-05T13:56:58.304Z,97628.59
2023-05-05T13:59:25.861Z,97639.69
2023-05-05T14:01:52.371Z,97657.00
2023-05-05T14:04:25.580Z,97706.88
2023-05-05T14:06:53.543Z,97715.00
2023-05-05T14:09:20.134Z,97745.13
2023-05-05T14:11:48.333Z,97746.75
2023-05-05T14:14:14.872Z,97748.28
2023-05-05T14:16:43.258Z,97751.94
2023-05-05T14:19:10.096Z,97747.25
2023-05-05T14:21:36.538Z,97744.94
2023-05-05T14:24:03.071Z,97763.47
2023-05-05T14:26:29.750Z,97786.88
2023-05-05T14:28:58.103Z,97804.69
2023-05-05T14:31:24.650Z,97837.34
2023-05-05T14:33:51.426Z,97879.19
2023-05-05T14:36:17.938Z,97895.28
2023-05-05T14:38:44.551Z,97909.34
2023-05-05T14:41:23.046Z,97917.81
2023-05-05T14:43:52.267Z,97915.75
2023-05-05T14:46:19.020Z,97931.56
2023-05-05T14:48:47.404Z,97965.72
2023-05-05T14:51:15.926Z,97978.28
2023-05-05T14:53:42.720Z,97987.66
2023-05-05T14:56:09.478Z,97966.75
2023-05-05T14:58:36.002Z,97976.56
2023-05-05T15:01:02.492Z,97959.22
2023-05-05T15:03:30.902Z,97963.13
2023-05-05T15:05:57.862Z,97977.91
2023-05-05T15:08:24.468Z,97979.22
2023-05-05T15:10:52.728Z,97953.56
2023-05-05T15:13:19.452Z,97944.53
2023-05-05T15:15:46.149Z,97936.63
2023-05-05T15:18:17.104Z,97941.78
2023-05-05T15:20:43.629Z,97938.38
2023-05-05T15:23:10.182Z,97925.94
2023-05-05T15:25:36.788Z,97931.19
2023-05-05T15:28:03.378Z,97945.31
2023-05-05T15:30:32.121Z,97956.09
2023-05-05T15:32:58.825Z,97963.41
2023-05-05T15:35:25.676Z,97933.50
2023-05-05T15:37:53.408Z,97948.34
2023-05-05T15:40:21.719Z,97944.38
2023-05-05T15:42:52.183Z,97924.16
2023-05-05T15:45:18.774Z,97918.66
2023-05-05T15:47:46.433Z,97911.00
2023-05-05T15:50:13.003Z,97925.47
2023-05-05T15:52:39.670Z,97902.41
2023-05-05T15:55:11.241Z,97896.09
2023-05-05T15:57:39.830Z,97896.13
2023-05-05T16:00:08.351Z,97887.63
2023-05-05T16:02:41.518Z,97881.50
2023-05-05T16:05:09.215Z,97883.91
2023-05-05T16:07:35.887Z,97887.75
2023-05-05T16:10:07.176Z,97890.16
2023-05-05T16:12:34.339Z,97894.78
2023-05-05T16:15:01.216Z,97896.88
2023-05-05T16:17:27.850Z,97898.75
2023-05-05T16:19:54.328Z,97908.16
2023-05-05T16:22:21.050Z,97911.22
2023-05-05T16:24:49.460Z,97905.34
2023-05-05T16:27:16.507Z,97907.19
2023-05-05T16:29:42.996Z,97911.34
2023-05-05T16:32:09.683Z,97911.72
2023-05-05T16:34:36.206Z,97907.81
2023-05-05T16:37:02.672Z,97908.94
2023-05-05T16:39:33.692Z,97896.84
2023-05-05T16:42:00.183Z,97895.25
2023-05-05T16:44:26.717Z,97894.47
2023-05-05T16:46:55.357Z,97890.56
2023-05-05T16:49:24.121Z,97888.59
2023-05-05T16:51:54.507Z,97883.06
2023-05-05T16:54:21.195Z,97884.13
2023-05-05T16:56:47.682Z,97895.09
2023-05-05T16:59:16.455Z,97889.31
2023-05-05T17:01:43.659Z,97888.13
2023-05-05T17:04:11.009Z,97892.69
2023-05-05T17:06:37.537Z,97887.91
2023-05-05T17:09:06.446Z,97885.59
2023-05-05T17:11:32.888Z,97887.94
2023-05-05T17:13:59.393Z,97890.00
2023-05-05T17:16:36.529Z,97887.25
2023-05-05T17:19:03.519Z,97880.91
2023-05-05T17:21:30.063Z,97889.50
2023-05-05T17:23:58.418Z,97888.09
2023-05-05T17:26:25.304Z,97897.81
2023-05-05T17:28:52.031Z,97896.69
2023-05-05T17:31:18.683Z,97888.59
2023-05-05T17:33:45.136Z,97897.88
2023-05-05T17:36:11.712Z,97900.22
2023-05-05T17:38:40.376Z,97894.44
2023-05-05T17:41:08.617Z,97897.19
2023-05-05T17:43:35.099Z,97899.94
2023-05-05T17:46:03.357Z,97904.22
2023-05-05T17:48:29.914Z,97905.72
2023-05-05T17:50:56.636Z,97908.44
2023-05-05T17:53:29.787Z,97901.41
2023-05-05T17:55:56.314Z,97906.47
2023-05-05T17:58:22.878Z,97909.28
2023-05-05T18:00:51.343Z,97910.91
2023-05-05T18:03:17.940Z,97901.31
2023-05-05T18:05:44.563Z,97910.69
2023-05-05T18:08:13.427Z,97897.84
2023-05-05T18:10:39.896Z,97900.16
2023-05-05T18:13:06.606Z,97909.56
2023-05-05T18:15:33.393Z,97905.44
2023-05-05T18:18:01.135Z,97909.03
2023-05-05T18:20:27.650Z,97903.59
2023-05-05T18:22:54.290Z,97901.31
2023-05-05T18:25:20.888Z,97903.28
2023-05-05T18:27:47.470Z,97906.00
2023-05-05T18:30:26.345Z,97908.38
2023-05-05T18:32:53.414Z,97920.47
2023-05-05T18:35:19.900Z,97920.91
2023-05-05T18:37:46.646Z,97925.97
2023-05-05T18:40:13.477Z,97923.25
2023-05-05T18:42:40.010Z,97923.66
2023-05-05T18:45:09.587Z,97920.56
2023-05-05T18:47:38.196Z,97926.81
2023-05-05T18:50:05.788Z,97928.78
2023-05-05T18:52:33.552Z,97927.25
2023-05-05T18:55:02.274Z,97938.94
2023-05-05T18:57:28.936Z,97938.56
2023-05-05T18:59:57.194Z,97943.66
2023-05-05T19:02:23.729Z,97944.06
2023-05-05T19:04:50.265Z,97947.63
2023-05-05T19:10:09.093Z,97962.34
2023-05-05T19:12:42.173Z,97958.47
2023-05-05T19:15:09.153Z,97972.13
2023-05-05T19:17:38.963Z,97965.94
2023-05-05T19:20:06.154Z,97967.09
2023-05-05T19:22:32.656Z,97976.84
2023-05-05T19:24:59.134Z,97976.84
2023-05-05T19:27:31.838Z,97980.34
2023-05-05T19:29:58.304Z,97989.28
2023-05-05T19:32:28.517Z,97999.38
2023-05-05T19:34:56.851Z,97993.53
2023-05-05T19:37:23.517Z,97994.72
2023-05-05T19:39:51.123Z,97994.34
2023-05-05T19:42:18.326Z,97993.59
2023-05-05T19:44:45.126Z,97992.41
2023-05-05T19:47:11.779Z,97997.09
2023-05-05T19:49:38.331Z,97995.13
2023-05-05T19:52:05.058Z,98000.94
2023-05-05T19:54:31.624Z,98006.34
2023-05-05T19:57:00.358Z,98001.31
2023-05-05T19:59:26.913Z,98004.03
2023-05-05T20:01:53.432Z,98002.44
2023-05-05T20:04:22.272Z,97995.81
2023-05-05T20:06:48.940Z,98000.88
2023-05-05T20:09:15.476Z,97998.59
2023-05-05T20:11:42.135Z,97999.69
2023-05-05T20:14:08.793Z,97995.81
2023-05-05T20:16:35.431Z,97995.81
2023-05-05T20:19:02.332Z,97990.41
2023-05-05T20:21:29.116Z,97994.31
2023-05-05T20:23:55.659Z,97994.31
2023-05-05T20:26:26.678Z,98009.84
2023-05-05T20:28:53.188Z,98012.19
2023-05-05T20:31:21.828Z,98011.00
2023-05-05T20:33:50.145Z,98011.38
2023-05-05T20:36:17.640Z,98011.03
2023-05-05T20:38:44.218Z,98011.44
2023-05-05T20:41:17.811Z,98014.56
2023-05-05T20:43:44.351Z,98016.88
2023-05-05T20:46:13.834Z,98021.56
2023-05-05T20:48:46.789Z,98014.97
2023-05-05T20:51:13.397Z,98013.41
2023-05-05T20:53:39.945Z,98029.31
2023-05-05T20:56:09.407Z,98025.41
2023-05-05T20:58:36.177Z,98022.28
2023-05-05T21:01:02.748Z,98019.53
2023-05-05T21:03:29.500Z,98021.09
2023-05-05T21:05:56.108Z,98021.88
2023-05-05T21:08:22.661Z,98023.44
2023-05-05T21:10:55.786Z,98019.50
2023-05-05T21:13:23.004Z,98016.41
2023-05-05T21:15:49.642Z,98015.66
2023-05-05T21:18:18.338Z,98018.75
2023-05-05T21:20:44.841Z,98012.50
2023-05-05T21:23:11.866Z,98019.88
2023-05-05T21:25:40.259Z,98016.78
2023-05-05T21:28:06.738Z,98017.56
2023-05-05T21:30:35.148Z,98008.63
2023-05-05T21:33:03.730Z,98007.84
2023-05-05T21:35:30.314Z,98005.56
2023-05-05T21:37:56.947Z,98001.31
2023-05-05T21:40:23.597Z,97997.03
2023-05-05T21:42:53.678Z,97992.78
2023-05-05T21:45:20.383Z,97995.88
2023-05-05T21:47:48.905Z,97989.69
2023-05-05T21:50:15.472Z,97988.53
2023-05-05T21:52:42.202Z,97985.84
2023-05-05T21:55:11.114Z,97984.59
2023-05-05T21:57:37.609Z,97982.28
2023-05-05T22:00:06.057Z,97984.59
2023-05-05T22:02:35.396Z,97988.88
2023-05-05T22:05:04.027Z,97985.00
2023-05-05T22:07:32.324Z,97980.31
2023-05-05T22:09:59.652Z,97983.44
2023-05-05T22:12:26.130Z,97980.31
2023-05-05T22:14:52.662Z,97977.59
2023-05-05T22:17:25.698Z,97981.13
2023-05-05T22:19:52.911Z,97981.13
2023-05-05T22:22:19.632Z,97981.91
2023-05-05T22:24:46.291Z,97974.53
2023-05-05T22:27:12.811Z,97970.22
2023-05-05T22:29:39.343Z,97979.16
2023-05-05T22:32:07.736Z,97979.94
2023-05-05T22:34:36.602Z,97979.16
2023-05-05T22:37:03.215Z,97983.50
2023-05-05T22:39:31.493Z,97974.56
2023-05-05T22:42:01.048Z,97975.34
2023-05-05T22:44:27.616Z,97976.88
2023-05-05T22:46:54.408Z,97972.22
2023-05-05T22:49:21.207Z,97977.66
2023-05-05T22:51:48.144Z,97978.06
2023-05-05T22:54:16.450Z,97984.28
2023-05-05T22:56:43.492Z,97991.28
2023-05-05T22:59:10.005Z,97999.03
2023-05-05T23:01:37.368Z,97994.41
2023-05-05T23:04:04.233Z,97986.22
2023-05-05T23:06:30.696Z,97988.56
2023-05-05T23:08:59.375Z,97988.19
2023-05-05T23:11:26.582Z,97990.50
2023-05-05T23:13:53.485Z,97987.81
2023-05-05T23:16:20.217Z,97976.16
2023-05-05T23:18:46.764Z,97979.25
2023-05-05T23:21:13.285Z,97974.59
2023-05-05T23:23:39.952Z,97968.00
2023-05-05T23:26:06.515Z,97976.13
2023-05-05T23:28:33.226Z,97969.53
2023-05-05T23:30:59.971Z,97968.34
2023-05-05T23:33:26.812Z,97973.03
2023-05-05T23:35:54.223Z,97973.44
2023-05-05T23:38:28.834Z,97975.75
2023-05-05T23:40:55.317Z,97975.75
2023-05-05T23:43:21.911Z,97974.22
2023-05-05T23:45:48.591Z,97979.25
2023-05-05T23:48:15.085Z,97975.38
2023-05-05T23:50:44.011Z,97971.09
2023-05-05T23:53:12.841Z,97974.22
2023-05-05T23:55:39.348Z,97975.00
2023-05-05T23:58:05.894Z,97967.97
